Airfield :
LOGIN :

Register | Disclaimer

   EN    FR    IT 

 










Legend :    VFR   Marginal VFR   IFR   Intensive IFR   Very Intensive IFR
Visi :
Ceiling :
>= 8 km
>= 3000ft
5 to 8 km
1000 to 3000 ft
1500m to 5 km
500 to 1000 ft
800 to 1500m
200 to 500 ft
< 800m
< 200 ft
Symbols :   Thunderstorms  Fog  Heavy snow  Heavy precipitations  Wind > 20 kt
SIGMETs :     Misc.  Thunderstorms  Icing  Turbulence  Mountain Waves  Volcanic Ashes







- Airport Elevation : 70 ft
- IATA code : WBG


ETNS - Schleswig

CURRENT METAR :
  • 220849Z 23021KT 2800 -DZRA BR BKN004 11/10 Q1000 YLO YLO TEMPO GRN

EXPIRED METARs :
  • 220837Z 24021G31KT 3500 -RADZ BR BKN004 11/10 Q1000 YLO YLO TEMPO GRN
  • 220828Z 24021KT 4500 -RA BR BKN004 10/10 Q1000 YLO YLO TEMPO GRN
  • 220801Z 23021KT 4000 -RADZ BR BKN004 10/10 Q1000 YLO YLO TEMPO GRN
  • 220720Z 23020KT 3000 -DZRA BR BKN004 10/09 Q1000 YLO YLO TEMPO AMB
  • 220620Z 23022KT 4000 -RADZ BR BKN004 10/09 Q0999 YLO YLO TEMPO AMB

TAF TAF ETNS
Valid from the 22 at 09:00 until the 22 at 18:00 UTC


220827Z 2209/2218 22015G25KT 3000 -RADZ BKN004
TEMPO 2209/2214 23020G30KT 4000 -RADZ BKN007
BECMG 2214/2216 21015G25KT 5000 BR BKN010 BKN020 BY ETGL
No reported NOTAMs for that airfield.
1 SIGMET reported for the Bremen FIR (EDWW) :
 
Severe turbulence
EDWW SIGMET 1 VALID 220727/221000 EDZH
EDWW BREMEN FIR SEV TURB FCST W OF E01110 SFC/2000FT WKN FCST AT 1000Z W OF E01110=



MET'MAP, your aeronautical weather chart ! - Copyright ORBIFLY December 2007 - Disclaimer

ORBIFLY MET'MAP TEAM :

Programming & Development : Alexandra Zaïnal
Concept & Development : Baudouin d'Aumeries
Co-Development & Prog : Marc-Olivier Méhu
Technical & hardware support : Manuel Goepfert

Contact : metmap@orbifly.com




SOURCES & CREDITS :

   NOAA